sensor_id;sensor_type;location;lat;lon;timestamp;pressure;altitude;pressure_sealevel;temperature;humidity
10466;BME280;5280;42.600;23.556;2022-07-24T00:02:08;93556.38;;;23.72;42.37
10466;BME280;5280;42.600;23.556;2022-07-24T00:04:35;93550.97;;;23.65;43.07
10466;BME280;5280;42.600;23.556;2022-07-24T00:07:02;93560.16;;;23.71;41.71
10466;BME280;5280;42.600;23.556;2022-07-24T00:09:30;93552.81;;;23.65;42.80
10466;BME280;5280;42.600;23.556;2022-07-24T00:11:58;93559.44;;;23.62;42.88
10466;BME280;5280;42.600;23.556;2022-07-24T00:14:25;93557.91;;;23.53;42.94
10466;BME280;5280;42.600;23.556;2022-07-24T00:16:52;93555.94;;;23.40;43.37
10466;BME280;5280;42.600;23.556;2022-07-24T00:19:19;93559.56;;;23.33;42.32
10466;BME280;5280;42.600;23.556;2022-07-24T00:21:46;93517.00;;;23.07;42.43
10466;BME280;5280;42.600;23.556;2022-07-24T00:24:14;93564.34;;;23.31;42.72
10466;BME280;5280;42.600;23.556;2022-07-24T00:26:42;93565.38;;;23.30;43.60
10466;BME280;5280;42.600;23.556;2022-07-24T00:29:09;93572.03;;;23.34;43.01
10466;BME280;5280;42.600;23.556;2022-07-24T00:31:36;93557.28;;;23.30;43.63
10466;BME280;5280;42.600;23.556;2022-07-24T00:34:03;93572.03;;;23.34;43.20
10466;BME280;5280;42.600;23.556;2022-07-24T00:36:29;93550.34;;;23.21;43.47
10466;BME280;5280;42.600;23.556;2022-07-24T00:38:56;93572.81;;;23.28;43.76
10466;BME280;5280;42.600;23.556;2022-07-24T00:41:23;93569.09;;;23.29;41.90
10466;BME280;5280;42.600;23.556;2022-07-24T00:44:04;93561.97;;;23.21;43.36
10466;BME280;5280;42.600;23.556;2022-07-24T00:46:31;93563.50;;;23.09;42.87
10466;BME280;5280;42.600;23.556;2022-07-24T00:48:58;93565.88;;;22.97;43.28
10466;BME280;5280;42.600;23.556;2022-07-24T00:51:25;93567.78;;;22.82;42.38
10466;BME280;5280;42.600;23.556;2022-07-24T00:53:52;93563.44;;;22.81;42.52
10466;BME280;5280;42.600;23.556;2022-07-24T00:56:19;93565.34;;;22.87;42.98
10466;BME280;5280;42.600;23.556;2022-07-24T00:58:46;93554.56;;;22.87;42.36
10466;BME280;5280;42.600;23.556;2022-07-24T01:01:15;93563.44;;;22.81;43.26
10466;BME280;5280;42.600;23.556;2022-07-24T01:03:44;93477.03;;;22.32;43.74
10466;BME280;5280;42.600;23.556;2022-07-24T01:06:12;93547.72;;;22.70;43.83
10466;BME280;5280;42.600;23.556;2022-07-24T01:08:39;93556.94;;;22.61;44.36
10466;BME280;5280;42.600;23.556;2022-07-24T01:11:09;93559.63;;;22.76;44.54
10466;BME280;5280;42.600;23.556;2022-07-24T01:13:37;93553.09;;;22.70;44.65
10466;BME280;5280;42.600;23.556;2022-07-24T01:16:04;93525.69;;;22.45;45.16
10466;BME280;5280;42.600;23.556;2022-07-24T01:18:33;93545.69;;;22.57;44.93
10466;BME280;5280;42.600;23.556;2022-07-24T01:21:04;93542.81;;;22.59;43.24
10466;BME280;5280;42.600;23.556;2022-07-24T01:23:32;93544.59;;;22.52;42.78
10466;BME280;5280;42.600;23.556;2022-07-24T01:26:01;93480.72;;;22.10;43.20
10466;BME280;5280;42.600;23.556;2022-07-24T01:28:28;93544.97;;;22.49;42.95
10466;BME280;5280;42.600;23.556;2022-07-24T01:30:55;93541.00;;;22.45;43.67
10466;BME280;5280;42.600;23.556;2022-07-24T01:33:22;93552.03;;;22.50;43.35
10466;BME280;5280;42.600;23.556;2022-07-24T01:35:49;93541.00;;;22.45;43.27
10466;BME280;5280;42.600;23.556;2022-07-24T01:38:18;93552.13;;;22.56;43.17
10466;BME280;5280;42.600;23.556;2022-07-24T01:40:45;93543.13;;;22.49;44.02
10466;BME280;5280;42.600;23.556;2022-07-24T01:43:12;93546.09;;;22.54;44.12
10466;BME280;5280;42.600;23.556;2022-07-24T01:45:39;93548.59;;;22.56;43.91
10466;BME280;5280;42.600;23.556;2022-07-24T01:48:06;93552.94;;;22.57;42.95
10466;BME280;5280;42.600;23.556;2022-07-24T01:50:33;93521.69;;;22.41;43.92
10466;BME280;5280;42.600;23.556;2022-07-24T01:53:00;93532.16;;;22.51;43.88
10466;BME280;5280;42.600;23.556;2022-07-24T01:55:29;93535.13;;;22.56;43.08
10466;BME280;5280;42.600;23.556;2022-07-24T01:57:56;93546.25;;;22.53;43.65
10466;BME280;5280;42.600;23.556;2022-07-24T02:00:23;93537.91;;;22.48;43.46
10466;BME280;5280;42.600;23.556;2022-07-24T02:02:50;93506.41;;;22.12;44.93
10466;BME280;5280;42.600;23.556;2022-07-24T02:05:17;93511.31;;;22.23;44.52
10466;BME280;5280;42.600;23.556;2022-07-24T02:07:44;93520.81;;;22.19;44.47
10466;BME280;5280;42.600;23.556;2022-07-24T02:10:12;93524.78;;;22.23;44.82
10466;BME280;5280;42.600;23.556;2022-07-24T02:12:41;93523.59;;;22.26;45.35
10466;BME280;5280;42.600;23.556;2022-07-24T02:15:09;93506.94;;;22.22;44.85
10466;BME280;5280;42.600;23.556;2022-07-24T02:17:35;93515.78;;;22.31;45.01
10466;BME280;5280;42.600;23.556;2022-07-24T02:20:03;93536.28;;;22.32;45.15
10466;BME280;5280;42.600;23.556;2022-07-24T02:22:30;93530.31;;;22.37;44.95
10466;BME280;5280;42.600;23.556;2022-07-24T02:24:58;93532.00;;;22.38;44.19
10466;BME280;5280;42.600;23.556;2022-07-24T02:27:25;93510.38;;;22.31;45.54
10466;BME280;5280;42.600;23.556;2022-07-24T02:29:53;93515.84;;;22.38;44.88
10466;BME280;5280;42.600;23.556;2022-07-24T02:32:20;93506.84;;;22.30;45.53
10466;BME280;5280;42.600;23.556;2022-07-24T02:34:47;93512.38;;;22.44;44.30
10466;BME280;5280;42.600;23.556;2022-07-24T02:37:14;93510.44;;;22.38;43.77
10466;BME280;5280;42.600;23.556;2022-07-24T02:39:41;93517.59;;;22.45;44.65
10466;BME280;5280;42.600;23.556;2022-07-24T02:42:07;93517.78;;;22.44;45.07
10466;BME280;5280;42.600;23.556;2022-07-24T02:44:34;93510.28;;;22.39;45.38
10466;BME280;5280;42.600;23.556;2022-07-24T02:47:03;93494.81;;;22.26;46.14
10466;BME280;5280;42.600;23.556;2022-07-24T02:49:30;93508.44;;;22.25;46.98
10466;BME280;5280;42.600;23.556;2022-07-24T02:51:57;93502.31;;;22.31;46.40
10466;BME280;5280;42.600;23.556;2022-07-24T02:54:26;93503.50;;;22.28;46.26
10466;BME280;5280;42.600;23.556;2022-07-24T02:56:53;93462.53;;;21.97;46.86
10466;BME280;5280;42.600;23.556;2022-07-24T02:59:20;93510.97;;;22.26;46.09
10466;BME280;5280;42.600;23.556;2022-07-24T03:01:47;93502.78;;;22.20;45.86
10466;BME280;5280;42.600;23.556;2022-07-24T03:04:18;93511.69;;;22.20;45.37
10466;BME280;5280;42.600;23.556;2022-07-24T03:06:45;93485.91;;;22.11;46.48
10466;BME280;5280;42.600;23.556;2022-07-24T03:09:12;93495.72;;;22.19;45.71
10466;BME280;5280;42.600;23.556;2022-07-24T03:11:38;93512.34;;;22.22;46.33
10466;BME280;5280;42.600;23.556;2022-07-24T03:14:05;93515.03;;;22.22;46.76
10466;BME280;5280;42.600;23.556;2022-07-24T03:16:32;93519.31;;;22.17;47.56
10466;BME280;5280;42.600;23.556;2022-07-24T03:18:59;93526.19;;;22.19;46.85
10466;BME280;5280;42.600;23.556;2022-07-24T03:21:27;93524.91;;;22.15;47.57
10466;BME280;5280;42.600;23.556;2022-07-24T03:23:54;93524.22;;;22.13;47.63
10466;BME280;5280;42.600;23.556;2022-07-24T03:26:21;93510.22;;;22.03;47.94
10466;BME280;5280;42.600;23.556;2022-07-24T03:28:48;93517.94;;;22.06;48.08
10466;BME280;5280;42.600;23.556;2022-07-24T03:31:15;93509.00;;;21.91;48.23
10466;BME280;5280;42.600;23.556;2022-07-24T03:33:41;93520.38;;;22.01;48.29
10466;BME280;5280;42.600;23.556;2022-07-24T03:36:08;93452.44;;;21.55;48.59
10466;BME280;5280;42.600;23.556;2022-07-24T03:38:37;93523.41;;;21.98;48.97
10466;BME280;5280;42.600;23.556;2022-07-24T03:41:04;93529.88;;;21.89;49.49
10466;BME280;5280;42.600;23.556;2022-07-24T03:43:31;93532.75;;;21.87;49.64
10466;BME280;5280;42.600;23.556;2022-07-24T03:45:58;93525.91;;;21.70;49.98
10466;BME280;5280;42.600;23.556;2022-07-24T03:48:25;93540.09;;;21.79;50.32
10466;BME280;5280;42.600;23.556;2022-07-24T03:50:51;93551.50;;;21.81;50.46
10466;BME280;5280;42.600;23.556;2022-07-24T03:53:18;93540.81;;;21.73;50.78
10466;BME280;5280;42.600;23.556;2022-07-24T03:55:46;93507.22;;;21.54;50.73
10466;BME280;5280;42.600;23.556;2022-07-24T03:58:13;93544.91;;;21.83;50.85
10466;BME280;5280;42.600;23.556;2022-07-24T04:00:40;93543.91;;;21.84;51.65
10466;BME280;5280;42.600;23.556;2022-07-24T04:03:07;93545.09;;;21.82;52.16
10466;BME280;5280;42.600;23.556;2022-07-24T04:05:34;93480.63;;;21.44;52.23
10466;BME280;5280;42.600;23.556;2022-07-24T04:08:01;93542.88;;;21.85;52.29
10466;BME280;5280;42.600;23.556;2022-07-24T04:10:28;93539.81;;;21.88;53.15
10466;BME280;5280;42.600;23.556;2022-07-24T04:12:56;93545.56;;;21.85;53.26
10466;BME280;5280;42.600;23.556;2022-07-24T04:15:23;93561.00;;;21.92;53.17
10466;BME280;5280;42.600;23.556;2022-07-24T04:17:50;93544.31;;;21.96;54.07
10466;BME280;5280;42.600;23.556;2022-07-24T04:20:20;93531.38;;;21.92;53.99
10466;BME280;5280;42.600;23.556;2022-07-24T04:22:47;93546.44;;;22.01;54.32
10466;BME280;5280;42.600;23.556;2022-07-24T04:25:14;93540.78;;;22.10;54.90
10466;BME280;5280;42.600;23.556;2022-07-24T04:27:41;93536.84;;;22.13;55.13
10466;BME280;5280;42.600;23.556;2022-07-24T04:30:11;93535.72;;;22.22;55.15
10466;BME280;5280;42.600;23.556;2022-07-24T04:32:38;93529.59;;;22.28;55.87
10466;BME280;5280;42.600;23.556;2022-07-24T04:35:06;93527.00;;;22.35;55.66
10466;BME280;5280;42.600;23.556;2022-07-24T04:37:33;93525.59;;;22.39;56.71
10466;BME280;5280;42.600;23.556;2022-07-24T04:40:00;93528.81;;;22.49;56.75
10466;BME280;5280;42.600;23.556;2022-07-24T04:42:29;93527.06;;;22.56;56.52
10466;BME280;5280;42.600;23.556;2022-07-24T04:44:56;93522.56;;;22.63;57.04
10466;BME280;5280;42.600;23.556;2022-07-24T04:47:24;93502.31;;;22.52;57.08
10466;BME280;5280;42.600;23.556;2022-07-24T04:49:51;93541.56;;;22.91;57.30
10466;BME280;5280;42.600;23.556;2022-07-24T04:52:18;93534.78;;;23.01;56.89
10466;BME280;5280;42.600;23.556;2022-07-24T04:54:45;93496.34;;;22.93;56.54
10466;BME280;5280;42.600;23.556;2022-07-24T04:57:12;93536.13;;;23.33;56.65
10466;BME280;5280;42.600;23.556;2022-07-24T04:59:38;93536.47;;;23.45;55.63
10466;BME280;5280;42.600;23.556;2022-07-24T05:02:06;93509.66;;;23.43;55.72
10466;BME280;5280;42.600;23.556;2022-07-24T05:04:34;93525.00;;;23.64;54.54
10466;BME280;5280;42.600;23.556;2022-07-24T05:07:01;93518.97;;;23.62;53.55
10466;BME280;5280;42.600;23.556;2022-07-24T05:09:28;93533.66;;;23.81;54.85
10466;BME280;5280;42.600;23.556;2022-07-24T05:11:54;93541.41;;;23.97;54.85
10466;BME280;5280;42.600;23.556;2022-07-24T05:14:21;93469.13;;;23.58;54.61
10466;BME280;5280;42.600;23.556;2022-07-24T05:16:48;93549.50;;;24.25;54.00
10466;BME280;5280;42.600;23.556;2022-07-24T05:19:15;93553.75;;;24.40;51.85
10466;BME280;5280;42.600;23.556;2022-07-24T05:21:43;93550.84;;;24.42;50.79
10466;BME280;5280;42.600;23.556;2022-07-24T05:24:13;93558.56;;;24.52;51.75
10466;BME280;5280;42.600;23.556;2022-07-24T05:26:40;93564.00;;;24.58;50.10
10466;BME280;5280;42.600;23.556;2022-07-24T05:29:07;93559.66;;;24.64;50.59
10466;BME280;5280;42.600;23.556;2022-07-24T05:31:34;93543.41;;;24.57;48.92
10466;BME280;5280;42.600;23.556;2022-07-24T05:34:01;93554.50;;;24.69;48.32
10466;BME280;5280;42.600;23.556;2022-07-24T05:36:28;93548.06;;;24.76;47.88
10466;BME280;5280;42.600;23.556;2022-07-24T05:38:56;93529.31;;;24.68;48.22
10466;BME280;5280;42.600;23.556;2022-07-24T05:41:23;93546.00;;;24.78;48.16
10466;BME280;5280;42.600;23.556;2022-07-24T05:43:50;93564.38;;;24.90;46.54
10466;BME280;5280;42.600;23.556;2022-07-24T05:46:17;93550.16;;;24.81;46.83
10466;BME280;5280;42.600;23.556;2022-07-24T05:48:44;93562.91;;;24.94;46.41
10466;BME280;5280;42.600;23.556;2022-07-24T05:51:11;93554.00;;;25.00;46.02
10466;BME280;5280;42.600;23.556;2022-07-24T05:53:38;93552.34;;;25.05;46.61
10466;BME280;5280;42.600;23.556;2022-07-24T05:56:07;93534.44;;;25.11;47.81
10466;BME280;5280;42.600;23.556;2022-07-24T05:58:34;93535.94;;;25.20;48.17
10466;BME280;5280;42.600;23.556;2022-07-24T06:01:01;93552.41;;;25.38;47.87
10466;BME280;5280;42.600;23.556;2022-07-24T06:03:28;93541.13;;;25.41;47.28
10466;BME280;5280;42.600;23.556;2022-07-24T06:05:55;93512.00;;;25.37;47.26
10466;BME280;5280;42.600;23.556;2022-07-24T06:08:22;93541.38;;;25.66;46.68
10466;BME280;5280;42.600;23.556;2022-07-24T06:10:48;93549.53;;;25.79;47.00
10466;BME280;5280;42.600;23.556;2022-07-24T06:13:17;93545.34;;;25.90;45.86
10466;BME280;5280;42.600;23.556;2022-07-24T06:15:44;93545.75;;;26.00;45.44
10466;BME280;5280;42.600;23.556;2022-07-24T06:18:11;93549.50;;;25.99;44.41
10466;BME280;5280;42.600;23.556;2022-07-24T06:20:37;93544.88;;;26.12;44.83
10466;BME280;5280;42.600;23.556;2022-07-24T06:23:07;93530.50;;;26.25;44.23
10466;BME280;5280;42.600;23.556;2022-07-24T06:25:34;93524.41;;;26.43;44.52
10466;BME280;5280;42.600;23.556;2022-07-24T06:28:01;93525.19;;;26.56;44.00
10466;BME280;5280;42.600;23.556;2022-07-24T06:30:29;93525.75;;;26.72;44.04
10466;BME280;5280;42.600;23.556;2022-07-24T06:32:58;93515.72;;;26.79;43.12
10466;BME280;5280;42.600;23.556;2022-07-24T06:35:26;93530.81;;;27.06;42.00
10466;BME280;5280;42.600;23.556;2022-07-24T06:37:53;93515.53;;;27.12;41.08
10466;BME280;5280;42.600;23.556;2022-07-24T06:40:21;93518.56;;;27.28;40.59
10466;BME280;5280;42.600;23.556;2022-07-24T06:42:48;93518.69;;;27.40;40.35
10466;BME280;5280;42.600;23.556;2022-07-24T06:45:15;93509.28;;;27.42;41.29
10466;BME280;5280;42.600;23.556;2022-07-24T06:47:43;93505.06;;;27.47;41.81
10466;BME280;5280;42.600;23.556;2022-07-24T06:50:11;93462.94;;;27.13;42.91
10466;BME280;5280;42.600;23.556;2022-07-24T06:52:38;93477.25;;;27.26;42.81
10466;BME280;5280;42.600;23.556;2022-07-24T06:55:06;93522.53;;;27.64;41.41
10466;BME280;5280;42.600;23.556;2022-07-24T06:57:33;93498.28;;;27.62;42.25
10466;BME280;5280;42.600;23.556;2022-07-24T07:00:00;93505.41;;;27.63;41.92
10466;BME280;5280;42.600;23.556;2022-07-24T07:02:28;93520.72;;;27.76;42.26
10466;BME280;5280;42.600;23.556;2022-07-24T07:04:56;93522.78;;;27.80;41.39
10466;BME280;5280;42.600;23.556;2022-07-24T07:07:23;93525.59;;;27.92;41.80
10466;BME280;5280;42.600;23.556;2022-07-24T07:09:50;93520.19;;;27.92;41.90
10466;BME280;5280;42.600;23.556;2022-07-24T07:12:17;93528.88;;;28.01;40.63
10466;BME280;5280;42.600;23.556;2022-07-24T07:14:43;93519.59;;;28.08;41.21
10466;BME280;5280;42.600;23.556;2022-07-24T07:17:10;93497.44;;;27.87;40.95
10466;BME280;5280;42.600;23.556;2022-07-24T07:19:37;93516.63;;;28.16;43.04
10466;BME280;5280;42.600;23.556;2022-07-24T07:22:05;93469.31;;;27.99;41.59
10466;BME280;5280;42.600;23.556;2022-07-24T07:24:32;93520.06;;;28.48;41.01
10466;BME280;5280;42.600;23.556;2022-07-24T07:26:59;93524.28;;;28.62;40.84
10466;BME280;5280;42.600;23.556;2022-07-24T07:29:26;93518.38;;;28.65;41.18
10466;BME280;5280;42.600;23.556;2022-07-24T07:31:53;93488.25;;;28.49;41.77
10466;BME280;5280;42.600;23.556;2022-07-24T07:34:21;93454.38;;;28.45;41.49
10466;BME280;5280;42.600;23.556;2022-07-24T07:36:48;93521.00;;;29.08;41.02
10466;BME280;5280;42.600;23.556;2022-07-24T07:39:16;93506.97;;;29.23;41.81
10466;BME280;5280;42.600;23.556;2022-07-24T07:41:43;93427.06;;;28.88;39.79
10466;BME280;5280;42.600;23.556;2022-07-24T07:44:10;93499.69;;;29.35;40.64
10466;BME280;5280;42.600;23.556;2022-07-24T07:46:38;93427.97;;;29.12;40.39
10466;BME280;5280;42.600;23.556;2022-07-24T07:49:05;93521.94;;;29.74;40.12
10466;BME280;5280;42.600;23.556;2022-07-24T07:51:35;93436.19;;;29.35;39.23
10466;BME280;5280;42.600;23.556;2022-07-24T07:54:03;93513.44;;;29.93;38.85
10466;BME280;5280;42.600;23.556;2022-07-24T07:56:32;93512.59;;;30.05;39.85
10466;BME280;5280;42.600;23.556;2022-07-24T07:58:59;93518.91;;;30.17;39.91
10466;BME280;5280;42.600;23.556;2022-07-24T08:01:26;93519.13;;;30.27;39.27
10466;BME280;5280;42.600;23.556;2022-07-24T08:03:53;93440.44;;;29.96;39.51
10466;BME280;5280;42.600;23.556;2022-07-24T08:06:20;93454.28;;;30.17;39.39
10466;BME280;5280;42.600;23.556;2022-07-24T08:08:47;93493.84;;;30.55;38.58
10466;BME280;5280;42.600;23.556;2022-07-24T08:11:14;93496.03;;;30.53;37.98
10466;BME280;5280;42.600;23.556;2022-07-24T08:13:43;93515.03;;;30.88;37.44
10466;BME280;5280;42.600;23.556;2022-07-24T08:16:11;93505.53;;;31.02;35.70
10466;BME280;5280;42.600;23.556;2022-07-24T08:23:42;93447.16;;;30.79;34.77
10466;BME280;5280;42.600;23.556;2022-07-24T08:26:09;93508.34;;;31.35;34.83
10466;BME280;5280;42.600;23.556;2022-07-24T08:28:36;93481.25;;;31.17;33.53
10466;BME280;5280;42.600;23.556;2022-07-24T08:31:07;93523.34;;;31.49;33.37
10466;BME280;5280;42.600;23.556;2022-07-24T08:33:34;93455.31;;;31.19;33.60
10466;BME280;5280;42.600;23.556;2022-07-24T08:36:01;93500.63;;;31.60;30.86
10466;BME280;5280;42.600;23.556;2022-07-24T08:38:28;93519.19;;;31.75;31.36
10466;BME280;5280;42.600;23.556;2022-07-24T08:40:56;93517.97;;;31.83;31.33
10466;BME280;5280;42.600;23.556;2022-07-24T08:43:23;93519.28;;;31.80;32.37
10466;BME280;5280;42.600;23.556;2022-07-24T08:45:54;93467.63;;;31.50;32.15
10466;BME280;5280;42.600;23.556;2022-07-24T08:48:24;93454.81;;;31.51;32.57
10466;BME280;5280;42.600;23.556;2022-07-24T08:50:53;93439.81;;;31.53;30.66
10466;BME280;5280;42.600;23.556;2022-07-24T08:53:22;93521.78;;;31.98;31.75
10466;BME280;5280;42.600;23.556;2022-07-24T08:55:53;93513.25;;;31.95;31.02
10466;BME280;5280;42.600;23.556;2022-07-24T08:58:23;93474.00;;;31.68;30.82
10466;BME280;5280;42.600;23.556;2022-07-24T09:00:52;93479.53;;;31.73;29.44
10466;BME280;5280;42.600;23.556;2022-07-24T09:03:23;93487.16;;;31.87;30.77
10466;BME280;5280;42.600;23.556;2022-07-24T09:05:54;93508.75;;;31.89;30.79
10466;BME280;5280;42.600;23.556;2022-07-24T09:08:21;93513.09;;;32.01;31.33
10466;BME280;5280;42.600;23.556;2022-07-24T09:10:56;93513.84;;;31.97;30.28
10466;BME280;5280;42.600;23.556;2022-07-24T09:13:25;93506.72;;;31.96;29.63
10466;BME280;5280;42.600;23.556;2022-07-24T09:15:55;93478.03;;;31.82;30.36
10466;BME280;5280;42.600;23.556;2022-07-24T09:18:33;93443.97;;;31.56;30.83
10466;BME280;5280;42.600;23.556;2022-07-24T09:21:12;93515.63;;;32.08;32.24
10466;BME280;5280;42.600;23.556;2022-07-24T09:23:40;93495.09;;;31.89;32.42
10466;BME280;5280;42.600;23.556;2022-07-24T09:26:08;93511.38;;;32.12;32.06
10466;BME280;5280;42.600;23.556;2022-07-24T09:28:47;93451.84;;;31.86;31.76
10466;BME280;5280;42.600;23.556;2022-07-24T09:31:14;93443.13;;;31.89;32.45
10466;BME280;5280;42.600;23.556;2022-07-24T09:33:46;93467.09;;;32.15;29.36
10466;BME280;5280;42.600;23.556;2022-07-24T09:36:15;93487.28;;;32.47;30.35
10466;BME280;5280;42.600;23.556;2022-07-24T09:38:48;93441.56;;;32.26;32.08
10466;BME280;5280;42.600;23.556;2022-07-24T09:41:22;93494.53;;;32.75;31.13
10466;BME280;5280;42.600;23.556;2022-07-24T09:43:59;93498.28;;;32.91;30.53
10466;BME280;5280;42.600;23.556;2022-07-24T09:46:27;93434.06;;;32.60;30.38
10466;BME280;5280;42.600;23.556;2022-07-24T09:48:59;93455.78;;;32.88;29.91
10466;BME280;5280;42.600;23.556;2022-07-24T09:51:30;93490.41;;;33.16;28.86
10466;BME280;5280;42.600;23.556;2022-07-24T09:53:59;93490.81;;;33.30;30.32
10466;BME280;5280;42.600;23.556;2022-07-24T09:56:27;93421.19;;;33.04;29.32
10466;BME280;5280;42.600;23.556;2022-07-24T09:58:56;93429.69;;;33.29;28.77
10466;BME280;5280;42.600;23.556;2022-07-24T10:01:26;93501.00;;;33.88;28.97
10466;BME280;5280;42.600;23.556;2022-07-24T10:03:56;93488.56;;;33.76;27.82
10466;BME280;5280;42.600;23.556;2022-07-24T10:06:25;93424.72;;;33.53;28.67
10466;BME280;5280;42.600;23.556;2022-07-24T10:08:54;93481.88;;;33.98;28.24
10466;BME280;5280;42.600;23.556;2022-07-24T10:11:23;93484.75;;;34.13;28.12
10466;BME280;5280;42.600;23.556;2022-07-24T10:13:50;93485.31;;;34.15;27.35
10466;BME280;5280;42.600;23.556;2022-07-24T10:16:29;93495.88;;;34.29;25.91
10466;BME280;5280;42.600;23.556;2022-07-24T10:18:58;93490.19;;;34.40;26.45
10466;BME280;5280;42.600;23.556;2022-07-24T10:21:28;93476.47;;;34.40;24.75
10466;BME280;5280;42.600;23.556;2022-07-24T10:24:11;93442.06;;;34.28;25.05
10466;BME280;5280;42.600;23.556;2022-07-24T10:26:41;93482.06;;;34.55;26.96
10466;BME280;5280;42.600;23.556;2022-07-24T10:29:09;93448.78;;;34.42;27.40
10466;BME280;5280;42.600;23.556;2022-07-24T10:31:38;93444.44;;;34.56;27.29
10466;BME280;5280;42.600;23.556;2022-07-24T10:34:15;93409.19;;;34.38;26.50
10466;BME280;5280;42.600;23.556;2022-07-24T10:36:51;93475.38;;;34.88;26.31
10466;BME280;5280;42.600;23.556;2022-07-24T10:39:22;93459.69;;;34.84;26.01
10466;BME280;5280;42.600;23.556;2022-07-24T10:42:05;93470.47;;;34.95;24.79
10466;BME280;5280;42.600;23.556;2022-07-24T10:44:32;93456.75;;;34.95;25.28
10466;BME280;5280;42.600;23.556;2022-07-24T10:47:03;93461.69;;;34.98;25.71
10466;BME280;5280;42.600;23.556;2022-07-24T10:49:43;93429.69;;;34.72;25.14
10466;BME280;5280;42.600;23.556;2022-07-24T10:52:20;93457.56;;;34.91;25.19
10466;BME280;5280;42.600;23.556;2022-07-24T10:55:24;93445.13;;;34.83;25.57
10466;BME280;5280;42.600;23.556;2022-07-24T10:57:58;93455.06;;;34.89;25.63
10466;BME280;5280;42.600;23.556;2022-07-24T11:00:34;93388.13;;;34.48;25.28
10466;BME280;5280;42.600;23.556;2022-07-24T11:03:06;93388.97;;;34.54;24.84
10466;BME280;5280;42.600;23.556;2022-07-24T11:05:35;93388.75;;;34.66;26.37
10466;BME280;5280;42.600;23.556;2022-07-24T11:08:30;93368.06;;;34.48;25.21
10466;BME280;5280;42.600;23.556;2022-07-24T11:11:05;93419.56;;;34.78;24.96
10466;BME280;5280;42.600;23.556;2022-07-24T11:13:51;93397.00;;;34.66;25.62
10466;BME280;5280;42.600;23.556;2022-07-24T11:16:24;93406.66;;;34.78;26.22
10466;BME280;5280;42.600;23.556;2022-07-24T11:19:24;93432.84;;;34.96;24.75
10466;BME280;5280;42.600;23.556;2022-07-24T11:22:03;93385.19;;;34.65;25.38
10466;BME280;5280;42.600;23.556;2022-07-24T11:25:12;93369.94;;;34.37;25.43
10466;BME280;5280;42.600;23.556;2022-07-24T11:27:54;93423.72;;;34.80;25.89
10466;BME280;5280;42.600;23.556;2022-07-24T11:30:27;93359.84;;;34.48;25.18
10466;BME280;5280;42.600;23.556;2022-07-24T11:32:57;93427.34;;;34.96;24.77
10466;BME280;5280;42.600;23.556;2022-07-24T11:35:31;93370.03;;;34.57;26.18
10466;BME280;5280;42.600;23.556;2022-07-24T11:38:09;93389.56;;;34.61;26.12
10466;BME280;5280;42.600;23.556;2022-07-24T11:40:42;93399.78;;;34.71;25.76
10466;BME280;5280;42.600;23.556;2022-07-24T11:43:09;93346.63;;;34.40;26.05
10466;BME280;5280;42.600;23.556;2022-07-24T11:45:39;93339.75;;;34.32;25.26
10466;BME280;5280;42.600;23.556;2022-07-24T11:48:23;93342.78;;;34.41;25.69
10466;BME280;5280;42.600;23.556;2022-07-24T11:51:07;93331.22;;;34.34;25.34
10466;BME280;5280;42.600;23.556;2022-07-24T11:53:36;93389.56;;;34.66;25.21
10466;BME280;5280;42.600;23.556;2022-07-24T11:56:03;93409.13;;;34.75;25.86
10466;BME280;5280;42.600;23.556;2022-07-24T11:58:37;93332.25;;;34.23;25.74
10466;BME280;5280;42.600;23.556;2022-07-24T12:01:18;93355.41;;;34.37;26.49
10466;BME280;5280;42.600;23.556;2022-07-24T12:03:49;93407.66;;;34.57;26.84
10466;BME280;5280;42.600;23.556;2022-07-24T12:06:18;93395.31;;;34.60;27.54
10466;BME280;5280;42.600;23.556;2022-07-24T12:08:46;93395.50;;;34.43;26.76
10466;BME280;5280;42.600;23.556;2022-07-24T12:11:20;93336.91;;;34.17;26.21
10466;BME280;5280;42.600;23.556;2022-07-24T12:13:48;93403.63;;;34.70;25.53
10466;BME280;5280;42.600;23.556;2022-07-24T12:16:23;93395.66;;;34.73;26.81
10466;BME280;5280;42.600;23.556;2022-07-24T12:22:06;93343.69;;;34.62;25.77
10466;BME280;5280;42.600;23.556;2022-07-24T12:24:47;93334.06;;;34.54;26.09
10466;BME280;5280;42.600;23.556;2022-07-24T12:27:33;93310.66;;;34.36;25.64
10466;BME280;5280;42.600;23.556;2022-07-24T12:30:21;93308.28;;;34.60;26.05
10466;BME280;5280;42.600;23.556;2022-07-24T12:33:00;93361.38;;;34.86;24.88
10466;BME280;5280;42.600;23.556;2022-07-24T12:35:29;93327.81;;;34.69;25.82
10466;BME280;5280;42.600;23.556;2022-07-24T12:38:02;93360.31;;;35.02;26.83
10466;BME280;5280;42.600;23.556;2022-07-24T12:40:41;93340.22;;;34.81;26.27
10466;BME280;5280;42.600;23.556;2022-07-24T12:43:12;93334.19;;;34.89;27.00
10466;BME280;5280;42.600;23.556;2022-07-24T12:46:15;93377.41;;;35.19;27.16
10466;BME280;5280;42.600;23.556;2022-07-24T12:48:58;93380.75;;;35.26;25.24
10466;BME280;5280;42.600;23.556;2022-07-24T12:51:34;93390.34;;;35.24;24.86
10466;BME280;5280;42.600;23.556;2022-07-24T12:54:23;93375.13;;;34.86;26.51
10466;BME280;5280;42.600;23.556;2022-07-24T12:56:55;93380.22;;;34.57;27.35
10466;BME280;5280;42.600;23.556;2022-07-24T12:59:27;93368.78;;;34.23;28.81
10466;BME280;5280;42.600;23.556;2022-07-24T13:02:02;93345.81;;;33.92;29.34
10466;BME280;5280;42.600;23.556;2022-07-24T13:07:37;93353.50;;;33.63;39.00
10466;BME280;5280;42.600;23.556;2022-07-24T13:10:12;93316.84;;;33.06;43.29
10466;BME280;5280;42.600;23.556;2022-07-24T13:15:53;93311.56;;;32.24;50.39
10466;BME280;5280;42.600;23.556;2022-07-24T13:18:52;93294.66;;;31.67;49.37
10466;BME280;5280;42.600;23.556;2022-07-24T13:21:47;93308.56;;;31.48;50.87
10466;BME280;5280;42.600;23.556;2022-07-24T13:24:39;93310.56;;;31.36;51.97
10466;BME280;5280;42.600;23.556;2022-07-24T13:30:26;93285.75;;;30.88;56.08
10466;BME280;5280;42.600;23.556;2022-07-24T13:33:08;93289.50;;;30.70;55.49